createdAt,value
2023-10-20T00:00:01.024Z,3.03
2023-10-20T00:02:29.304Z,1.07
2023-10-20T00:04:56.414Z,4.63
2023-10-20T00:07:23.300Z,3.27
2023-10-20T00:09:51.052Z,2.50
2023-10-20T00:12:18.115Z,1.90
2023-10-20T00:14:46.092Z,1.60
2023-10-20T00:17:13.162Z,1.60
2023-10-20T00:19:40.018Z,1.03
2023-10-20T00:22:07.430Z,1.53
2023-10-20T00:24:34.386Z,1.10
2023-10-20T00:27:01.427Z,1.20
2023-10-20T00:29:28.259Z,1.60
2023-10-20T00:31:55.324Z,1.80
2023-10-20T00:34:22.404Z,1.43
2023-10-20T00:36:49.316Z,1.30
2023-10-20T00:39:17.849Z,1.57
2023-10-20T00:41:45.281Z,1.60
2023-10-20T00:44:12.206Z,2.00
2023-10-20T00:46:39.293Z,1.07
2023-10-20T00:49:06.246Z,1.40
2023-10-20T00:51:33.297Z,1.10
2023-10-20T00:54:01.522Z,1.60
2023-10-20T00:56:30.294Z,1.40
2023-10-20T00:58:57.424Z,1.80
2023-10-20T01:01:24.577Z,1.47
2023-10-20T01:03:51.978Z,1.80
2023-10-20T01:06:18.992Z,1.67
2023-10-20T01:08:45.895Z,2.00
2023-10-20T01:11:12.799Z,1.50
2023-10-20T01:13:39.942Z,3.57
2023-10-20T01:16:06.887Z,3.63
2023-10-20T01:18:33.903Z,2.03
2023-10-20T01:21:00.793Z,1.97
2023-10-20T01:23:27.911Z,4.40
2023-10-20T01:25:54.957Z,4.80
2023-10-20T01:28:21.797Z,2.70
2023-10-20T01:30:49.029Z,2.40
2023-10-20T01:33:16.081Z,2.57
2023-10-20T01:35:43.061Z,1.63
2023-10-20T01:38:09.968Z,1.70
2023-10-20T01:40:36.827Z,1.60
2023-10-20T01:43:03.863Z,1.70
2023-10-20T01:45:30.794Z,1.67
2023-10-20T01:47:57.656Z,1.37
2023-10-20T01:50:25.003Z,1.00
2023-10-20T01:52:52.047Z,1.60
2023-10-20T01:55:19.246Z,1.77
2023-10-20T01:57:46.251Z,1.47
2023-10-20T02:00:15.054Z,2.50
2023-10-20T02:02:42.289Z,2.40
2023-10-20T02:05:09.852Z,2.70
2023-10-20T02:07:38.058Z,2.30
2023-10-20T02:10:07.834Z,2.10
2023-10-20T02:12:35.627Z,2.33
2023-10-20T02:15:02.540Z,2.37
2023-10-20T02:17:30.214Z,2.83
2023-10-20T02:19:58.621Z,2.20
2023-10-20T02:22:26.405Z,1.97
2023-10-20T02:24:54.260Z,2.07
2023-10-20T02:27:21.407Z,2.37
2023-10-20T02:29:48.310Z,2.90
2023-10-20T02:32:15.378Z,2.13
2023-10-20T02:34:42.389Z,2.83
2023-10-20T02:37:13.528Z,2.83
2023-10-20T02:39:41.116Z,2.40
2023-10-20T02:42:08.160Z,2.90
2023-10-20T02:44:35.312Z,3.37
2023-10-20T02:47:02.392Z,2.23
2023-10-20T02:49:29.415Z,3.17
2023-10-20T02:51:57.021Z,3.50
2023-10-20T02:54:23.969Z,3.10
2023-10-20T02:56:50.949Z,2.90
2023-10-20T02:59:18.130Z,3.10
2023-10-20T03:01:45.030Z,3.03
2023-10-20T03:04:12.139Z,3.17
2023-10-20T03:06:39.114Z,3.30
2023-10-20T03:09:06.302Z,3.03
2023-10-20T03:11:33.285Z,3.90
2023-10-20T03:14:00.393Z,3.47
2023-10-20T03:16:27.994Z,3.70
2023-10-20T03:18:55.244Z,3.83
2023-10-20T03:21:22.962Z,4.13
2023-10-20T03:23:49.955Z,4.03
2023-10-20T03:26:17.167Z,4.00
2023-10-20T03:28:44.875Z,4.03
2023-10-20T03:31:11.877Z,4.27
2023-10-20T03:33:38.899Z,4.23
2023-10-20T03:36:06.338Z,4.80
2023-10-20T03:38:34.408Z,5.60
2023-10-20T03:41:10.899Z,5.50
2023-10-20T03:43:38.121Z,6.13
2023-10-20T03:46:06.266Z,6.40
2023-10-20T03:48:36.355Z,6.67
2023-10-20T03:51:06.779Z,6.17
2023-10-20T03:53:44.889Z,6.90
2023-10-20T03:56:12.090Z,7.23
2023-10-20T03:58:39.296Z,8.00
2023-10-20T04:01:08.084Z,9.13
2023-10-20T04:03:35.494Z,8.80
2023-10-20T04:06:09.600Z,8.40
2023-10-20T04:08:36.650Z,8.83
2023-10-20T04:11:15.282Z,8.20
2023-10-20T04:13:42.371Z,9.13
2023-10-20T04:16:15.056Z,9.23
2023-10-20T04:18:43.223Z,9.67
2023-10-20T04:21:13.389Z,10.60
2023-10-20T04:23:43.590Z,10.80
2023-10-20T04:26:22.090Z,11.23
2023-10-20T04:28:52.473Z,10.67
2023-10-20T04:31:38.151Z,12.50
2023-10-20T04:34:21.578Z,12.30
2023-10-20T04:37:03.830Z,13.43
2023-10-20T04:39:46.186Z,13.17
2023-10-20T04:42:28.837Z,13.60
2023-10-20T04:45:15.854Z,13.27
2023-10-20T04:48:03.005Z,14.20
2023-10-20T04:50:45.585Z,14.80
2023-10-20T04:53:12.602Z,14.10
2023-10-20T04:55:54.774Z,13.20
2023-10-20T04:58:35.933Z,12.60
2023-10-20T05:01:17.357Z,13.97
2023-10-20T05:03:47.605Z,13.13
2023-10-20T05:06:31.529Z,26.43
2023-10-20T05:08:58.756Z,13.37
2023-10-20T05:11:25.749Z,10.90
2023-10-20T05:13:52.954Z,12.73
2023-10-20T05:16:23.100Z,13.00
2023-10-20T05:18:50.177Z,12.77
2023-10-20T05:21:17.167Z,14.47
2023-10-20T05:23:45.360Z,13.23
2023-10-20T05:26:12.338Z,13.03
2023-10-20T05:28:39.402Z,13.23
2023-10-20T05:31:06.449Z,13.67
2023-10-20T05:33:33.487Z,12.90
2023-10-20T05:36:04.800Z,13.43
2023-10-20T05:38:32.469Z,14.93
2023-10-20T05:41:00.726Z,14.00
2023-10-20T05:43:28.805Z,13.10
2023-10-20T05:45:55.973Z,12.53
2023-10-20T05:48:23.127Z,12.60
2023-10-20T05:50:56.202Z,13.63
2023-10-20T05:53:24.021Z,14.30
2023-10-20T05:55:51.211Z,13.80
2023-10-20T05:58:18.556Z,14.03
2023-10-20T06:01:01.823Z,13.50
2023-10-20T06:03:30.497Z,12.70
2023-10-20T06:06:02.185Z,12.23
2023-10-20T06:08:30.484Z,15.37
2023-10-20T06:11:04.118Z,13.67
2023-10-20T06:13:34.198Z,12.10
2023-10-20T06:16:10.758Z,12.03
2023-10-20T06:18:39.860Z,11.50
2023-10-20T06:21:08.396Z,11.50
2023-10-20T06:23:35.442Z,10.60
2023-10-20T06:26:02.634Z,10.93
2023-10-20T06:28:29.496Z,9.83
2023-10-20T06:31:01.020Z,9.63
2023-10-20T06:33:33.923Z,9.10
2023-10-20T06:36:11.931Z,7.70
2023-10-20T06:38:42.376Z,8.20
2023-10-20T06:41:09.777Z,7.20
2023-10-20T06:43:36.725Z,7.27
2023-10-20T06:46:03.800Z,6.67
2023-10-20T06:48:30.821Z,6.43
2023-10-20T06:50:58.290Z,7.00
2023-10-20T06:53:58.205Z,5.97
2023-10-20T07:10:19.108Z,6.07
2023-10-20T07:12:46.139Z,6.27
2023-10-20T07:15:13.331Z,5.70
2023-10-20T07:17:40.443Z,5.80
2023-10-20T07:20:08.523Z,6.23
2023-10-20T07:22:36.129Z,6.30
2023-10-20T07:25:05.120Z,6.57
2023-10-20T07:27:32.653Z,6.13
2023-10-20T07:30:00.553Z,6.37
2023-10-20T07:32:27.746Z,6.43
2023-10-20T07:34:54.636Z,7.60
2023-10-20T07:37:21.884Z,7.17
2023-10-20T07:39:48.863Z,6.80
2023-10-20T07:42:20.795Z,7.87
2023-10-20T07:44:48.434Z,7.50
2023-10-20T07:47:15.569Z,7.00
2023-10-20T07:49:42.674Z,8.60
2023-10-20T07:52:09.630Z,8.60
2023-10-20T07:54:36.867Z,8.27
2023-10-20T07:57:04.397Z,8.50
2023-10-20T07:59:31.604Z,9.23
2023-10-20T08:01:58.820Z,9.00
2023-10-20T08:04:28.105Z,9.10
2023-10-20T08:06:56.794Z,7.70
2023-10-20T08:09:33.581Z,9.00
2023-10-20T08:12:00.779Z,10.33
2023-10-20T08:14:31.857Z,9.33
2023-10-20T08:17:13.273Z,10.27
2023-10-20T08:19:48.547Z,9.90
2023-10-20T08:22:24.758Z,9.20
2023-10-20T08:25:04.260Z,9.40
2023-10-20T08:27:32.197Z,8.83
2023-10-20T08:29:59.482Z,10.27
2023-10-20T08:32:26.654Z,9.90
2023-10-20T08:34:54.337Z,10.77
2023-10-20T08:37:21.828Z,12.13
2023-10-20T08:39:48.947Z,11.60
2023-10-20T08:42:23.493Z,11.00
2023-10-20T08:44:51.714Z,11.80
2023-10-20T08:47:21.144Z,12.40
2023-10-20T08:49:49.003Z,13.27
2023-10-20T08:56:17.310Z,12.87
2023-10-20T08:58:49.050Z,12.30
2023-10-20T09:01:19.894Z,12.60
2023-10-20T09:04:05.075Z,12.60
2023-10-20T09:06:32.190Z,11.07
2023-10-20T09:09:01.246Z,8.60
2023-10-20T09:11:35.867Z,7.67
2023-10-20T09:14:04.081Z,8.00
2023-10-20T09:16:31.368Z,7.80
2023-10-20T09:18:58.509Z,6.43
2023-10-20T09:21:27.091Z,6.73
2023-10-20T09:23:57.908Z,6.63
2023-10-20T09:26:26.771Z,7.43
2023-10-20T09:28:55.532Z,6.67
2023-10-20T09:31:24.030Z,7.10
2023-10-20T09:33:56.671Z,6.60
2023-10-20T09:36:25.287Z,6.17
2023-10-20T09:38:54.137Z,6.10
2023-10-20T09:41:25.710Z,6.23
2023-10-20T09:47:10.101Z,6.90
2023-10-20T09:49:40.421Z,6.93
2023-10-20T09:52:07.860Z,7.70
2023-10-20T09:54:36.937Z,6.70
2023-10-20T09:57:15.323Z,5.33
2023-10-20T09:59:43.269Z,5.90
2023-10-20T10:02:10.482Z,6.20
2023-10-20T10:04:41.274Z,6.07
2023-10-20T10:07:09.625Z,5.60
2023-10-20T10:09:39.565Z,6.60
2023-10-20T10:12:12.051Z,5.63
2023-10-20T10:14:39.209Z,5.67
2023-10-20T10:17:13.472Z,5.13
2023-10-20T10:19:52.460Z,5.00
2023-10-20T10:22:27.963Z,5.00
2023-10-20T10:24:57.213Z,4.70
2023-10-20T10:27:29.316Z,5.03
2023-10-20T10:30:01.672Z,4.00
2023-10-20T10:32:32.941Z,5.03
2023-10-20T10:35:01.447Z,3.50
2023-10-20T10:37:33.079Z,3.63
2023-10-20T10:40:11.761Z,2.80
2023-10-20T10:42:45.721Z,2.67
2023-10-20T10:45:31.788Z,2.83
2023-10-20T10:48:11.097Z,2.67
2023-10-20T10:50:42.942Z,2.87
2023-10-20T10:53:13.185Z,2.07
2023-10-20T10:55:42.252Z,2.20
2023-10-20T10:58:11.726Z,1.70
2023-10-20T11:00:39.706Z,1.97
2023-10-20T11:03:07.672Z,2.00
2023-10-20T11:05:35.385Z,1.70
2023-10-20T11:08:04.126Z,1.90
2023-10-20T11:10:34.460Z,1.57
2023-10-20T11:13:05.501Z,2.13
2023-10-20T11:15:34.123Z,1.33
2023-10-20T11:18:03.599Z,1.30
2023-10-20T11:20:37.752Z,1.20
2023-10-20T11:23:08.875Z,1.17
2023-10-20T11:25:38.276Z,0.90
2023-10-20T11:28:07.528Z,0.90
2023-10-20T11:30:39.817Z,1.20
2023-10-20T11:33:07.890Z,0.90
2023-10-20T11:35:34.964Z,0.60
2023-10-20T11:38:02.423Z,0.80
2023-10-20T11:40:29.564Z,0.70
2023-10-20T11:42:57.680Z,0.70
2023-10-20T11:45:25.914Z,0.67
2023-10-20T11:47:53.538Z,0.70
2023-10-20T11:50:21.111Z,0.63
2023-10-20T11:52:48.974Z,0.40
2023-10-20T11:55:16.322Z,1.40
2023-10-20T11:57:43.639Z,0.50
2023-10-20T12:00:11.430Z,0.60
2023-10-20T12:02:40.392Z,0.73
2023-10-20T12:05:08.712Z,0.73
2023-10-20T12:07:36.552Z,0.40
2023-10-20T12:10:07.494Z,0.40
2023-10-20T12:12:35.851Z,0.50
2023-10-20T12:15:04.539Z,0.40
2023-10-20T12:17:32.374Z,0.30
2023-10-20T12:20:00.529Z,0.30
2023-10-20T12:22:27.630Z,0.23
2023-10-20T12:24:55.052Z,0.40
2023-10-20T12:27:22.966Z,0.30
2023-10-20T12:29:49.927Z,0.20
2023-10-20T12:32:17.716Z,0.27
2023-10-20T12:34:45.105Z,0.20
2023-10-20T12:37:12.185Z,0.20
2023-10-20T12:39:43.486Z,0.40
2023-10-20T12:42:10.736Z,0.40
2023-10-20T12:44:38.276Z,0.17
2023-10-20T12:47:07.491Z,0.40
2023-10-20T12:49:34.696Z,0.20
2023-10-20T12:52:03.682Z,0.30
2023-10-20T12:54:31.406Z,0.20
2023-10-20T12:57:00.736Z,0.20
2023-10-20T12:59:27.749Z,0.30
2023-10-20T13:01:57.664Z,0.20
2023-10-20T13:04:25.723Z,0.20
2023-10-20T13:07:00.642Z,0.80
2023-10-20T13:09:31.296Z,0.23
2023-10-20T13:11:59.113Z,0.30
2023-10-20T13:14:27.698Z,0.20
2023-10-20T13:16:58.189Z,0.30
2023-10-20T13:19:25.866Z,0.20
2023-10-20T13:21:54.125Z,0.20
2023-10-20T13:24:21.804Z,0.20
2023-10-20T13:26:48.982Z,0.30
2023-10-20T13:29:17.191Z,0.20
2023-10-20T13:31:44.748Z,0.30
2023-10-20T13:34:12.274Z,0.17
2023-10-20T13:36:39.385Z,0.20
2023-10-20T13:39:17.212Z,0.20
2023-10-20T13:41:47.127Z,0.20
2023-10-20T13:44:15.862Z,0.20
2023-10-20T13:46:42.901Z,0.30
2023-10-20T13:49:10.181Z,1.27
2023-10-20T13:51:37.397Z,0.40
2023-10-20T13:54:04.606Z,0.20
2023-10-20T13:56:31.587Z,0.30
2023-10-20T13:58:58.671Z,0.20
2023-10-20T14:01:25.676Z,0.20
2023-10-20T14:03:53.927Z,0.50
2023-10-20T14:06:21.681Z,0.40
2023-10-20T14:08:48.951Z,0.30
2023-10-20T14:11:16.446Z,0.30
2023-10-20T14:13:44.258Z,0.20
2023-10-20T14:16:11.492Z,0.50
2023-10-20T14:18:38.709Z,0.30
2023-10-20T14:21:06.500Z,0.20
2023-10-20T14:23:36.914Z,0.20
2023-10-20T14:26:04.237Z,0.20
2023-10-20T14:28:32.946Z,0.20
2023-10-20T14:31:02.620Z,0.30
2023-10-20T14:33:30.376Z,0.30
2023-10-20T14:35:58.605Z,0.30
2023-10-20T14:38:26.559Z,0.40
2023-10-20T14:41:03.240Z,0.50
2023-10-20T14:43:33.787Z,0.23
2023-10-20T14:46:01.999Z,0.30
2023-10-20T14:48:29.345Z,0.30
2023-10-20T14:50:57.188Z,0.20
2023-10-20T14:53:24.617Z,0.40
2023-10-20T14:55:51.656Z,0.20
2023-10-20T14:58:19.286Z,0.37
2023-10-20T15:00:49.616Z,0.27
2023-10-20T15:03:18.099Z,0.53
2023-10-20T15:05:46.590Z,0.40
2023-10-20T15:08:13.605Z,0.60
2023-10-20T15:10:40.921Z,0.77
2023-10-20T15:13:07.960Z,0.40
2023-10-20T15:15:36.520Z,0.60
2023-10-20T15:18:03.896Z,0.83
2023-10-20T15:20:31.401Z,1.30
2023-10-20T15:23:06.738Z,1.23
2023-10-20T15:25:42.202Z,0.90
2023-10-20T15:28:09.215Z,1.00
2023-10-20T15:30:36.286Z,1.23
2023-10-20T15:33:03.624Z,2.40
2023-10-20T15:35:30.660Z,1.50
2023-10-20T15:37:58.600Z,1.93
2023-10-20T15:40:25.898Z,2.43
2023-10-20T15:42:52.887Z,1.93
2023-10-20T15:45:20.267Z,2.00
2023-10-20T15:47:49.827Z,0.97
2023-10-20T15:50:16.978Z,1.37
2023-10-20T15:52:44.039Z,0.90
2023-10-20T15:55:11.061Z,0.83
2023-10-20T15:57:38.280Z,0.57
2023-10-20T16:00:05.898Z,0.30
2023-10-20T16:02:32.829Z,0.57
2023-10-20T16:04:59.917Z,0.40
2023-10-20T16:07:26.775Z,0.43
2023-10-20T16:09:53.685Z,0.40
2023-10-20T16:12:21.102Z,0.40
2023-10-20T16:14:48.371Z,0.40
2023-10-20T16:17:15.972Z,0.40
2023-10-20T16:19:44.353Z,0.50
2023-10-20T16:22:11.864Z,0.33
2023-10-20T16:24:40.090Z,0.50
2023-10-20T16:27:07.267Z,0.40
2023-10-20T16:29:34.931Z,0.70
2023-10-20T16:32:02.097Z,0.67
2023-10-20T16:34:29.589Z,0.50
2023-10-20T16:36:56.638Z,0.30
2023-10-20T16:39:24.184Z,0.30
2023-10-20T16:41:52.272Z,0.47
2023-10-20T16:44:19.236Z,0.50
2023-10-20T16:46:46.229Z,0.30
2023-10-20T16:49:14.428Z,0.23
2023-10-20T16:51:44.836Z,0.50
2023-10-20T16:54:15.578Z,0.90
2023-10-20T16:56:43.575Z,0.60
2023-10-20T16:59:12.259Z,0.40
2023-10-20T17:01:39.754Z,0.70
2023-10-20T17:04:07.054Z,0.60
2023-10-20T17:06:34.176Z,0.47
2023-10-20T17:09:01.088Z,0.43
2023-10-20T17:11:28.428Z,0.60
2023-10-20T17:13:55.687Z,0.60
2023-10-20T17:16:22.659Z,0.53
2023-10-20T17:18:49.718Z,0.43
2023-10-20T17:21:16.857Z,0.50
2023-10-20T17:23:43.945Z,0.50
2023-10-20T17:26:11.786Z,0.47
2023-10-20T17:28:38.671Z,0.50
2023-10-20T17:31:06.093Z,0.70
2023-10-20T17:33:33.491Z,1.00
2023-10-20T17:36:09.091Z,0.63
2023-10-20T17:38:36.338Z,1.07
2023-10-20T17:41:04.842Z,0.60
2023-10-20T17:43:32.696Z,0.80
2023-10-20T17:46:04.608Z,0.73
2023-10-20T17:48:31.678Z,0.50
2023-10-20T17:51:01.149Z,0.70
2023-10-20T17:53:29.268Z,0.67
2023-10-20T17:55:57.407Z,0.50
2023-10-20T17:58:26.825Z,0.50
2023-10-20T18:00:54.025Z,0.40
2023-10-20T18:03:21.383Z,0.53
2023-10-20T18:05:50.599Z,0.40
2023-10-20T18:08:19.568Z,0.40
2023-10-20T18:10:46.621Z,0.43
2023-10-20T18:13:14.024Z,0.43
2023-10-20T18:15:41.051Z,0.50
2023-10-20T18:18:08.076Z,0.57
2023-10-20T18:20:39.774Z,0.63
2023-10-20T18:23:06.967Z,0.50
2023-10-20T18:25:33.994Z,0.43
2023-10-20T18:28:04.795Z,0.50
2023-10-20T18:30:31.809Z,0.30
2023-10-20T18:32:59.161Z,0.50
2023-10-20T18:35:26.453Z,0.50
2023-10-20T18:37:53.365Z,0.40
2023-10-20T18:40:20.437Z,0.30
2023-10-20T18:42:49.109Z,0.70
2023-10-20T18:45:16.378Z,1.10
2023-10-20T18:47:43.435Z,2.17
2023-10-20T18:50:11.231Z,3.00
2023-10-20T18:52:38.496Z,4.30
2023-10-20T18:55:07.034Z,3.60
2023-10-20T18:57:34.131Z,2.50
2023-10-20T19:00:01.431Z,1.00
2023-10-20T19:02:28.432Z,1.43
2023-10-20T19:04:55.635Z,0.67
2023-10-20T19:07:22.816Z,0.70
2023-10-20T19:09:55.414Z,0.60
2023-10-20T19:12:22.537Z,0.80
2023-10-20T19:14:50.004Z,0.77
2023-10-20T19:17:17.445Z,0.97
2023-10-20T19:19:48.303Z,0.70
2023-10-20T19:22:15.471Z,1.07
2023-10-20T19:24:42.496Z,0.60
2023-10-20T19:27:09.953Z,0.60
2023-10-20T19:29:37.278Z,0.60
2023-10-20T19:32:06.294Z,0.90
2023-10-20T19:34:33.489Z,0.50
2023-10-20T19:37:00.647Z,0.40
2023-10-20T19:39:27.698Z,0.60
2023-10-20T19:41:55.456Z,0.50
2023-10-20T19:44:22.638Z,0.60
2023-10-20T19:46:50.717Z,0.40
2023-10-20T19:49:17.834Z,0.87
2023-10-20T19:51:44.990Z,1.00
2023-10-20T19:54:13.254Z,0.50
2023-10-20T19:56:40.550Z,0.67
2023-10-20T19:59:08.446Z,0.30
2023-10-20T20:01:35.595Z,0.50
2023-10-20T20:04:03.362Z,0.50
2023-10-20T20:06:30.975Z,0.33
2023-10-20T20:08:57.921Z,0.50
2023-10-20T20:11:25.101Z,0.40
2023-10-20T20:13:52.053Z,0.60
2023-10-20T20:16:19.831Z,0.30
2023-10-20T20:18:46.958Z,0.40
2023-10-20T20:21:14.212Z,0.60
2023-10-20T20:23:41.704Z,0.60
2023-10-20T20:26:11.237Z,0.40
2023-10-20T20:28:38.537Z,0.50
2023-10-20T20:31:06.791Z,0.30
2023-10-20T20:33:34.208Z,0.40
2023-10-20T20:36:02.184Z,0.40
2023-10-20T20:38:29.331Z,0.40
2023-10-20T20:40:56.459Z,0.30
2023-10-20T20:43:24.442Z,0.40
2023-10-20T20:45:55.826Z,0.23
2023-10-20T20:48:23.058Z,0.40
2023-10-20T20:50:50.699Z,0.60
2023-10-20T20:53:18.542Z,0.40
2023-10-20T20:55:47.533Z,0.80
2023-10-20T20:58:15.208Z,1.00
2023-10-20T21:00:42.379Z,0.73
2023-10-20T21:03:09.677Z,0.40
2023-10-20T21:05:37.059Z,0.90
2023-10-20T21:08:04.991Z,0.43
2023-10-20T21:10:32.447Z,0.30
2023-10-20T21:12:59.754Z,0.40
2023-10-20T21:15:26.788Z,0.40
2023-10-20T21:17:53.911Z,0.37
2023-10-20T21:20:21.111Z,0.40
2023-10-20T21:22:52.310Z,0.30
2023-10-20T21:25:20.823Z,0.30
2023-10-20T21:27:47.864Z,0.30
2023-10-20T21:30:15.224Z,0.30
2023-10-20T21:32:42.324Z,0.20
2023-10-20T21:35:09.443Z,0.33
2023-10-20T21:37:36.368Z,0.40
2023-10-20T21:40:04.033Z,0.30
2023-10-20T21:42:33.925Z,0.60
2023-10-20T21:45:01.223Z,0.40
2023-10-20T21:47:28.279Z,0.33
2023-10-20T21:49:55.421Z,0.40
2023-10-20T21:52:22.389Z,0.40
2023-10-20T21:54:49.522Z,0.30
2023-10-20T21:57:16.871Z,0.40
2023-10-20T21:59:44.103Z,0.40
2023-10-20T22:02:13.947Z,0.30
2023-10-20T22:04:41.464Z,0.30
2023-10-20T22:07:08.415Z,0.30
2023-10-20T22:09:52.462Z,0.30
2023-10-20T22:12:21.269Z,0.30
2023-10-20T22:14:48.592Z,0.30
2023-10-20T22:17:15.541Z,0.20
2023-10-20T22:19:42.688Z,0.20
2023-10-20T22:22:09.659Z,0.30
2023-10-20T22:24:36.707Z,0.30
2023-10-20T22:27:05.013Z,0.20
2023-10-20T22:29:33.616Z,0.30
2023-10-20T22:32:00.767Z,0.20
2023-10-20T22:34:27.971Z,0.20
2023-10-20T22:36:54.943Z,0.27
2023-10-20T22:39:24.614Z,0.30
2023-10-20T22:41:51.816Z,0.30
2023-10-20T22:44:18.895Z,0.30
2023-10-20T22:46:52.045Z,0.40
2023-10-20T22:49:20.012Z,0.23
2023-10-20T22:51:47.176Z,0.20
2023-10-20T22:54:14.536Z,0.27
2023-10-20T22:56:43.879Z,0.20
2023-10-20T22:59:11.043Z,0.30
2023-10-20T23:01:38.512Z,0.30
2023-10-20T23:04:07.886Z,0.20
2023-10-20T23:06:42.813Z,0.20
2023-10-20T23:09:11.435Z,0.30
2023-10-20T23:11:40.627Z,0.20
2023-10-20T23:14:07.985Z,0.33
2023-10-20T23:16:38.401Z,0.30
2023-10-20T23:24:35.743Z,0.17
2023-10-20T23:27:04.727Z,0.20
2023-10-20T23:29:41.297Z,0.20
2023-10-20T23:32:10.144Z,0.20
2023-10-20T23:34:38.423Z,0.37
2023-10-20T23:37:05.918Z,0.20
2023-10-20T23:39:34.220Z,0.20
2023-10-20T23:42:03.428Z,0.30
2023-10-20T23:44:31.195Z,0.20
2023-10-20T23:46:58.395Z,0.30
2023-10-20T23:49:25.582Z,0.30
2023-10-20T23:51:53.055Z,0.20
2023-10-20T23:54:20.622Z,0.20
2023-10-20T23:56:48.318Z,0.20
2023-10-20T23:59:15.504Z,0.20
